<?xml version="1.0" encoding="UTF-8" standalone="no" ?>
<gpx xmlns="http://www.topografix.com/GPX/1/1" xmlns:xsi="http://www.w3.org/2001/XMLSchema-instance" xsi:schemaLocation="http://www.topografix.com/GPX/1/1 http://www.topografix.com/GPX/1/1/gpx.xsd" version="1.1" creator="VisuGPX - https://www.visugpx.com">
  <metadata>
    <name>Vacances 2021</name>
  </metadata>
  <trk>
    <name><![CDATA[Journal actif: 2021-07-29 17:01]]></name>
    <trkseg>
      <trkpt lat="49.2019" lon="-0.35151">
        <ele>73.68</ele>
        <time>2021-07-29T19:01:50Z</time>
      </trkpt>
      <trkpt lat="49.20256" lon="-0.35447">
        <ele>71.76</ele>
        <time>2021-07-29T19:02:03Z</time>
      </trkpt>
      <trkpt lat="49.20288" lon="-0.35729">
        <ele>72.24</ele>
        <time>2021-07-29T19:02:16Z</time>
      </trkpt>
      <trkpt lat="49.20291" lon="-0.35859">
        <ele>67.43</ele>
        <time>2021-07-29T19:02:21Z</time>
      </trkpt>
      <trkpt lat="49.2028" lon="-0.36138">
        <ele>63.1</ele>
        <time>2021-07-29T19:02:30Z</time>
      </trkpt>
      <trkpt lat="49.20239" lon="-0.36415">
        <ele>56.37</ele>
        <time>2021-07-29T19:02:41Z</time>
      </trkpt>
      <trkpt lat="49.20186" lon="-0.36641">
        <ele>52.53</ele>
        <time>2021-07-29T19:02:50Z</time>
      </trkpt>
      <trkpt lat="49.20085" lon="-0.36907">
        <ele>47.24</ele>
        <time>2021-07-29T19:03:03Z</time>
      </trkpt>
      <trkpt lat="49.19979" lon="-0.37113">
        <ele>44.84</ele>
        <time>2021-07-29T19:03:13Z</time>
      </trkpt>
      <trkpt lat="49.19825" lon="-0.37407">
        <ele>40.51</ele>
        <time>2021-07-29T19:03:26Z</time>
      </trkpt>
      <trkpt lat="49.19666" lon="-0.37744">
        <ele>36.67</ele>
        <time>2021-07-29T19:03:41Z</time>
      </trkpt>
      <trkpt lat="49.19594" lon="-0.38006">
        <ele>38.59</ele>
        <time>2021-07-29T19:03:52Z</time>
      </trkpt>
      <trkpt lat="49.19557" lon="-0.38312">
        <ele>41.95</ele>
        <time>2021-07-29T19:04:02Z</time>
      </trkpt>
      <trkpt lat="49.19564" lon="-0.38657">
        <ele>47.72</ele>
        <time>2021-07-29T19:04:13Z</time>
      </trkpt>
      <trkpt lat="49.19588" lon="-0.39159">
        <ele>51.57</ele>
        <time>2021-07-29T19:04:28Z</time>
      </trkpt>
      <trkpt lat="49.19594" lon="-0.39642">
        <ele>56.37</ele>
        <time>2021-07-29T19:04:44Z</time>
      </trkpt>
      <trkpt lat="49.19565" lon="-0.40078">
        <ele>59.74</ele>
        <time>2021-07-29T19:04:57Z</time>
      </trkpt>
      <trkpt lat="49.19491" lon="-0.40545">
        <ele>63.1</ele>
        <time>2021-07-29T19:05:11Z</time>
      </trkpt>
      <trkpt lat="49.19403" lon="-0.40911">
        <ele>63.1</ele>
        <time>2021-07-29T19:05:23Z</time>
      </trkpt>
      <trkpt lat="49.19297" lon="-0.4125">
        <ele>65.03</ele>
        <time>2021-07-29T19:05:36Z</time>
      </trkpt>
      <trkpt lat="49.1916" lon="-0.41652">
        <ele>67.43</ele>
        <time>2021-07-29T19:05:52Z</time>
      </trkpt>
      <trkpt lat="49.19095" lon="-0.41967">
        <ele>68.39</ele>
        <time>2021-07-29T19:06:03Z</time>
      </trkpt>
      <trkpt lat="49.19064" lon="-0.42352">
        <ele>68.87</ele>
        <time>2021-07-29T19:06:15Z</time>
      </trkpt>
      <trkpt lat="49.1909" lon="-0.4276">
        <ele>65.99</ele>
        <time>2021-07-29T19:06:26Z</time>
      </trkpt>
      <trkpt lat="49.1915" lon="-0.431">
        <ele>64.55</ele>
        <time>2021-07-29T19:06:38Z</time>
      </trkpt>
      <trkpt lat="49.19243" lon="-0.4358">
        <ele>64.55</ele>
        <time>2021-07-29T19:06:54Z</time>
      </trkpt>
      <trkpt lat="49.19262" lon="-0.43685">
        <ele>65.51</ele>
        <time>2021-07-29T19:06:59Z</time>
      </trkpt>
      <trkpt lat="49.19266" lon="-0.43705">
        <ele>65.99</ele>
        <time>2021-07-29T19:07:00Z</time>
      </trkpt>
      <trkpt lat="49.19287" lon="-0.43709">
        <ele>65.03</ele>
        <time>2021-07-29T19:07:01Z</time>
      </trkpt>
      <trkpt lat="49.19304" lon="-0.4373">
        <ele>64.55</ele>
        <time>2021-07-29T19:07:02Z</time>
      </trkpt>
      <trkpt lat="49.19304" lon="-0.4373">
        <ele>64.07</ele>
        <time>2021-07-29T19:07:03Z</time>
      </trkpt>
      <trkpt lat="49.19327" lon="-0.43746">
        <ele>64.07</ele>
        <time>2021-07-29T19:07:04Z</time>
      </trkpt>
      <trkpt lat="49.19327" lon="-0.43746">
        <ele>64.07</ele>
        <time>2021-07-29T19:07:05Z</time>
      </trkpt>
      <trkpt lat="49.19356" lon="-0.43768">
        <ele>64.07</ele>
        <time>2021-07-29T19:07:10Z</time>
      </trkpt>
      <trkpt lat="49.19372" lon="-0.43779">
        <ele>64.07</ele>
        <time>2021-07-29T19:07:19Z</time>
      </trkpt>
      <trkpt lat="49.19376" lon="-0.43783">
        <ele>63.58</ele>
        <time>2021-07-29T19:07:20Z</time>
      </trkpt>
      <trkpt lat="49.19387" lon="-0.43796">
        <ele>63.1</ele>
        <time>2021-07-29T19:07:22Z</time>
      </trkpt>
      <trkpt lat="49.19393" lon="-0.43802">
        <ele>62.62</ele>
        <time>2021-07-29T19:07:23Z</time>
      </trkpt>
      <trkpt lat="49.19399" lon="-0.43809">
        <ele>62.62</ele>
        <time>2021-07-29T19:07:24Z</time>
      </trkpt>
      <trkpt lat="49.19417" lon="-0.43813">
        <ele>62.14</ele>
        <time>2021-07-29T19:07:25Z</time>
      </trkpt>
      <trkpt lat="49.19417" lon="-0.43813">
        <ele>62.14</ele>
        <time>2021-07-29T19:07:26Z</time>
      </trkpt>
      <trkpt lat="49.19432" lon="-0.43808">
        <ele>62.62</ele>
        <time>2021-07-29T19:07:27Z</time>
      </trkpt>
      <trkpt lat="49.19438" lon="-0.43813">
        <ele>62.62</ele>
        <time>2021-07-29T19:07:28Z</time>
      </trkpt>
      <trkpt lat="49.19438" lon="-0.43813">
        <ele>62.62</ele>
        <time>2021-07-29T19:07:29Z</time>
      </trkpt>
      <trkpt lat="49.19448" lon="-0.43826">
        <ele>62.62</ele>
        <time>2021-07-29T19:07:30Z</time>
      </trkpt>
      <trkpt lat="49.19451" lon="-0.43835">
        <ele>62.14</ele>
        <time>2021-07-29T19:07:31Z</time>
      </trkpt>
      <trkpt lat="49.19451" lon="-0.43835">
        <ele>62.14</ele>
        <time>2021-07-29T19:07:32Z</time>
      </trkpt>
      <trkpt lat="49.19454" lon="-0.43847">
        <ele>61.66</ele>
        <time>2021-07-29T19:07:33Z</time>
      </trkpt>
      <trkpt lat="49.19454" lon="-0.43855">
        <ele>61.18</ele>
        <time>2021-07-29T19:07:34Z</time>
      </trkpt>
      <trkpt lat="49.19451" lon="-0.43867">
        <ele>61.18</ele>
        <time>2021-07-29T19:07:35Z</time>
      </trkpt>
      <trkpt lat="49.19448" lon="-0.43879">
        <ele>60.7</ele>
        <time>2021-07-29T19:07:36Z</time>
      </trkpt>
      <trkpt lat="49.19443" lon="-0.43885">
        <ele>60.7</ele>
        <time>2021-07-29T19:07:37Z</time>
      </trkpt>
      <trkpt lat="49.19436" lon="-0.43892">
        <ele>59.74</ele>
        <time>2021-07-29T19:07:38Z</time>
      </trkpt>
      <trkpt lat="49.19429" lon="-0.43896">
        <ele>60.22</ele>
        <time>2021-07-29T19:07:39Z</time>
      </trkpt>
      <trkpt lat="49.19418" lon="-0.43894">
        <ele>59.74</ele>
        <time>2021-07-29T19:07:40Z</time>
      </trkpt>
      <trkpt lat="49.19406" lon="-0.43899">
        <ele>58.3</ele>
        <time>2021-07-29T19:07:41Z</time>
      </trkpt>
      <trkpt lat="49.19396" lon="-0.43907">
        <ele>57.34</ele>
        <time>2021-07-29T19:07:42Z</time>
      </trkpt>
      <trkpt lat="49.19386" lon="-0.43913">
        <ele>57.34</ele>
        <time>2021-07-29T19:07:43Z</time>
      </trkpt>
      <trkpt lat="49.19267" lon="-0.43981">
        <ele>56.37</ele>
        <time>2021-07-29T19:07:53Z</time>
      </trkpt>
      <trkpt lat="49.19233" lon="-0.43997">
        <ele>56.37</ele>
        <time>2021-07-29T19:07:59Z</time>
      </trkpt>
      <trkpt lat="49.19198" lon="-0.44016">
        <ele>57.34</ele>
        <time>2021-07-29T19:08:10Z</time>
      </trkpt>
      <trkpt lat="49.19193" lon="-0.44019">
        <ele>57.34</ele>
        <time>2021-07-29T19:08:11Z</time>
      </trkpt>
      <trkpt lat="49.19188" lon="-0.44021">
        <ele>57.34</ele>
        <time>2021-07-29T19:08:12Z</time>
      </trkpt>
      <trkpt lat="49.19182" lon="-0.44045">
        <ele>56.86</ele>
        <time>2021-07-29T19:08:15Z</time>
      </trkpt>
      <trkpt lat="49.19176" lon="-0.44057">
        <ele>56.86</ele>
        <time>2021-07-29T19:08:16Z</time>
      </trkpt>
      <trkpt lat="49.19171" lon="-0.44062">
        <ele>57.34</ele>
        <time>2021-07-29T19:08:17Z</time>
      </trkpt>
      <trkpt lat="49.19162" lon="-0.44062">
        <ele>57.34</ele>
        <time>2021-07-29T19:08:18Z</time>
      </trkpt>
      <trkpt lat="49.19156" lon="-0.44061">
        <ele>57.34</ele>
        <time>2021-07-29T19:08:19Z</time>
      </trkpt>
      <trkpt lat="49.1914" lon="-0.44047">
        <ele>57.34</ele>
        <time>2021-07-29T19:08:20Z</time>
      </trkpt>
      <trkpt lat="49.1914" lon="-0.44047">
        <ele>56.86</ele>
        <time>2021-07-29T19:08:21Z</time>
      </trkpt>
      <trkpt lat="49.19133" lon="-0.4405">
        <ele>56.86</ele>
        <time>2021-07-29T19:08:22Z</time>
      </trkpt>
      <trkpt lat="49.19125" lon="-0.44053">
        <ele>56.86</ele>
        <time>2021-07-29T19:08:23Z</time>
      </trkpt>
      <trkpt lat="49.19023" lon="-0.44099">
        <ele>57.34</ele>
        <time>2021-07-29T19:08:32Z</time>
      </trkpt>
      <trkpt lat="49.18854" lon="-0.4417">
        <ele>50.61</ele>
        <time>2021-07-29T19:08:44Z</time>
      </trkpt>
      <trkpt lat="49.18817" lon="-0.44175">
        <ele>51.57</ele>
        <time>2021-07-29T19:08:50Z</time>
      </trkpt>
      <trkpt lat="49.188" lon="-0.44175">
        <ele>52.05</ele>
        <time>2021-07-29T19:09:13Z</time>
      </trkpt>
      <trkpt lat="49.18732" lon="-0.44169">
        <ele>53.97</ele>
        <time>2021-07-29T19:09:22Z</time>
      </trkpt>
      <trkpt lat="49.18571" lon="-0.44118">
        <ele>53.01</ele>
        <time>2021-07-29T19:09:38Z</time>
      </trkpt>
      <trkpt lat="49.18414" lon="-0.44071">
        <ele>53.01</ele>
        <time>2021-07-29T19:09:55Z</time>
      </trkpt>
      <trkpt lat="49.18381" lon="-0.44063">
        <ele>53.49</ele>
        <time>2021-07-29T19:10:01Z</time>
      </trkpt>
      <trkpt lat="49.18372" lon="-0.44061">
        <ele>53.49</ele>
        <time>2021-07-29T19:10:06Z</time>
      </trkpt>
      <trkpt lat="49.18368" lon="-0.4406">
        <ele>53.49</ele>
        <time>2021-07-29T19:10:07Z</time>
      </trkpt>
      <trkpt lat="49.18363" lon="-0.44059">
        <ele>53.49</ele>
        <time>2021-07-29T19:10:08Z</time>
      </trkpt>
      <trkpt lat="49.18357" lon="-0.44057">
        <ele>53.49</ele>
        <time>2021-07-29T19:10:09Z</time>
      </trkpt>
      <trkpt lat="49.1835" lon="-0.44058">
        <ele>53.49</ele>
        <time>2021-07-29T19:10:10Z</time>
      </trkpt>
      <trkpt lat="49.18253" lon="-0.44077">
        <ele>57.34</ele>
        <time>2021-07-29T19:10:21Z</time>
      </trkpt>
      <trkpt lat="49.18154" lon="-0.44057">
        <ele>57.82</ele>
        <time>2021-07-29T19:10:32Z</time>
      </trkpt>
      <trkpt lat="49.18056" lon="-0.43964">
        <ele>57.34</ele>
        <time>2021-07-29T19:10:42Z</time>
      </trkpt>
      <trkpt lat="49.17963" lon="-0.43795">
        <ele>55.41</ele>
        <time>2021-07-29T19:10:53Z</time>
      </trkpt>
      <trkpt lat="49.17827" lon="-0.43543">
        <ele>51.09</ele>
        <time>2021-07-29T19:11:06Z</time>
      </trkpt>
      <trkpt lat="49.17766" lon="-0.43429">
        <ele>49.65</ele>
        <time>2021-07-29T19:11:14Z</time>
      </trkpt>
      <trkpt lat="49.17677" lon="-0.43272">
        <ele>49.65</ele>
        <time>2021-07-29T19:11:25Z</time>
      </trkpt>
      <trkpt lat="49.17618" lon="-0.43178">
        <ele>49.16</ele>
        <time>2021-07-29T19:11:34Z</time>
      </trkpt>
      <trkpt lat="49.1761" lon="-0.43166">
        <ele>50.13</ele>
        <time>2021-07-29T19:12:09Z</time>
      </trkpt>
      <trkpt lat="49.1761" lon="-0.43166">
        <ele>50.13</ele>
        <time>2021-07-29T19:12:10Z</time>
      </trkpt>
      <trkpt lat="49.17607" lon="-0.43161">
        <ele>50.13</ele>
        <time>2021-07-29T19:12:11Z</time>
      </trkpt>
      <trkpt lat="49.17596" lon="-0.4316">
        <ele>49.65</ele>
        <time>2021-07-29T19:12:12Z</time>
      </trkpt>
      <trkpt lat="49.17591" lon="-0.43169">
        <ele>49.65</ele>
        <time>2021-07-29T19:12:13Z</time>
      </trkpt>
      <trkpt lat="49.17581" lon="-0.43184">
        <ele>50.13</ele>
        <time>2021-07-29T19:12:14Z</time>
      </trkpt>
      <trkpt lat="49.17581" lon="-0.43184">
        <ele>50.13</ele>
        <time>2021-07-29T19:12:15Z</time>
      </trkpt>
      <trkpt lat="49.17565" lon="-0.43208">
        <ele>50.61</ele>
        <time>2021-07-29T19:12:18Z</time>
      </trkpt>
      <trkpt lat="49.17554" lon="-0.43224">
        <ele>50.61</ele>
        <time>2021-07-29T19:12:19Z</time>
      </trkpt>
      <trkpt lat="49.17551" lon="-0.43234">
        <ele>50.61</ele>
        <time>2021-07-29T19:12:20Z</time>
      </trkpt>
      <trkpt lat="49.17551" lon="-0.43244">
        <ele>50.61</ele>
        <time>2021-07-29T19:12:21Z</time>
      </trkpt>
      <trkpt lat="49.17551" lon="-0.43244">
        <ele>50.61</ele>
        <time>2021-07-29T19:12:22Z</time>
      </trkpt>
      <trkpt lat="49.17551" lon="-0.43255">
        <ele>50.61</ele>
        <time>2021-07-29T19:12:23Z</time>
      </trkpt>
      <trkpt lat="49.17551" lon="-0.43266">
        <ele>51.09</ele>
        <time>2021-07-29T19:12:24Z</time>
      </trkpt>
      <trkpt lat="49.17563" lon="-0.43421">
        <ele>52.05</ele>
        <time>2021-07-29T19:12:36Z</time>
      </trkpt>
      <trkpt lat="49.17568" lon="-0.43485">
        <ele>52.05</ele>
        <time>2021-07-29T19:12:43Z</time>
      </trkpt>
      <trkpt lat="49.17572" lon="-0.43554">
        <ele>52.05</ele>
        <time>2021-07-29T19:12:51Z</time>
      </trkpt>
      <trkpt lat="49.17583" lon="-0.43699">
        <ele>51.09</ele>
        <time>2021-07-29T19:13:02Z</time>
      </trkpt>
      <trkpt lat="49.17592" lon="-0.43794">
        <ele>54.45</ele>
        <time>2021-07-29T19:13:10Z</time>
      </trkpt>
      <trkpt lat="49.17598" lon="-0.43885">
        <ele>56.86</ele>
        <time>2021-07-29T19:13:21Z</time>
      </trkpt>
      <trkpt lat="49.176" lon="-0.43917">
        <ele>57.82</ele>
        <time>2021-07-29T19:13:30Z</time>
      </trkpt>
      <trkpt lat="49.17607" lon="-0.44011">
        <ele>59.26</ele>
        <time>2021-07-29T19:13:41Z</time>
      </trkpt>
      <trkpt lat="49.17613" lon="-0.44099">
        <ele>61.66</ele>
        <time>2021-07-29T19:13:49Z</time>
      </trkpt>
      <trkpt lat="49.17613" lon="-0.44107">
        <ele>61.66</ele>
        <time>2021-07-29T19:13:50Z</time>
      </trkpt>
      <trkpt lat="49.17612" lon="-0.4412">
        <ele>61.66</ele>
        <time>2021-07-29T19:13:51Z</time>
      </trkpt>
      <trkpt lat="49.17612" lon="-0.4412">
        <ele>61.66</ele>
        <time>2021-07-29T19:13:52Z</time>
      </trkpt>
      <trkpt lat="49.1761" lon="-0.44129">
        <ele>61.66</ele>
        <time>2021-07-29T19:13:53Z</time>
      </trkpt>
      <trkpt lat="49.1761" lon="-0.44129">
        <ele>62.14</ele>
        <time>2021-07-29T19:13:54Z</time>
      </trkpt>
      <trkpt lat="49.17587" lon="-0.44167">
        <ele>64.07</ele>
        <time>2021-07-29T19:14:03Z</time>
      </trkpt>
      <trkpt lat="49.17564" lon="-0.4417">
        <ele>65.03</ele>
        <time>2021-07-29T19:14:13Z</time>
      </trkpt>
      <trkpt lat="49.17502" lon="-0.44182">
        <ele>65.99</ele>
        <time>2021-07-29T19:14:26Z</time>
      </trkpt>
      <trkpt lat="49.17497" lon="-0.44175">
        <ele>65.51</ele>
        <time>2021-07-29T19:14:43Z</time>
      </trkpt>
      <trkpt lat="49.17499" lon="-0.44172">
        <ele>65.99</ele>
        <time>2021-07-29T19:14:59Z</time>
      </trkpt>
      <trkpt lat="49.17504" lon="-0.44168">
        <ele>65.99</ele>
        <time>2021-07-29T19:15:44Z</time>
      </trkpt>
      <trkpt lat="49.17507" lon="-0.44167">
        <ele>66.95</ele>
        <time>2021-07-29T19:16:31Z</time>
      </trkpt>
      <trkpt lat="49.17506" lon="-0.4417">
        <ele>67.91</ele>
        <time>2021-07-29T19:17:08Z</time>
      </trkpt>
      <trkpt lat="49.17505" lon="-0.44176">
        <ele>68.87</ele>
        <time>2021-07-29T19:17:49Z</time>
      </trkpt>
      <trkpt lat="49.17503" lon="-0.44181">
        <ele>69.35</ele>
        <time>2021-07-29T19:18:25Z</time>
      </trkpt>
      <trkpt lat="49.17502" lon="-0.4418">
        <ele>69.35</ele>
        <time>2021-07-29T19:19:01Z</time>
      </trkpt>
      <trkpt lat="49.17501" lon="-0.44182">
        <ele>70.31</ele>
        <time>2021-07-29T19:19:41Z</time>
      </trkpt>
      <trkpt lat="49.17501" lon="-0.44182">
        <ele>70.79</ele>
        <time>2021-07-29T19:20:16Z</time>
      </trkpt>
      <trkpt lat="49.175" lon="-0.44183">
        <ele>71.27</ele>
        <time>2021-07-29T19:20:56Z</time>
      </trkpt>
      <trkpt lat="49.17499" lon="-0.44184">
        <ele>71.76</ele>
        <time>2021-07-29T19:21:34Z</time>
      </trkpt>
      <trkpt lat="49.17499" lon="-0.44183">
        <ele>72.24</ele>
        <time>2021-07-29T19:22:08Z</time>
      </trkpt>
      <trkpt lat="49.17499" lon="-0.44182">
        <ele>72.72</ele>
        <time>2021-07-29T19:22:41Z</time>
      </trkpt>
      <trkpt lat="49.17499" lon="-0.44181">
        <ele>72.72</ele>
        <time>2021-07-29T19:22:46Z</time>
      </trkpt>
      <trkpt lat="49.17532" lon="-0.44185">
        <ele>72.72</ele>
        <time>2021-07-29T19:22:59Z</time>
      </trkpt>
      <trkpt lat="49.1759" lon="-0.4417">
        <ele>70.79</ele>
        <time>2021-07-29T19:23:16Z</time>
      </trkpt>
      <trkpt lat="49.17592" lon="-0.44167">
        <ele>70.79</ele>
        <time>2021-07-29T19:23:17Z</time>
      </trkpt>
      <trkpt lat="49.17607" lon="-0.44138">
        <ele>69.83</ele>
        <time>2021-07-29T19:23:30Z</time>
      </trkpt>
      <trkpt lat="49.17607" lon="-0.44138">
        <ele>69.83</ele>
        <time>2021-07-29T19:23:31Z</time>
      </trkpt>
      <trkpt lat="49.17607" lon="-0.44138">
        <ele>69.83</ele>
        <time>2021-07-29T19:23:32Z</time>
      </trkpt>
      <trkpt lat="49.17607" lon="-0.44138">
        <ele>69.83</ele>
        <time>2021-07-29T19:23:33Z</time>
      </trkpt>
      <trkpt lat="49.17607" lon="-0.44138">
        <ele>69.83</ele>
        <time>2021-07-29T19:23:34Z</time>
      </trkpt>
      <trkpt lat="49.17607" lon="-0.44138">
        <ele>69.35</ele>
        <time>2021-07-29T19:23:35Z</time>
      </trkpt>
      <trkpt lat="49.17607" lon="-0.44138">
        <ele>69.35</ele>
        <time>2021-07-29T19:23:36Z</time>
      </trkpt>
      <trkpt lat="49.17608" lon="-0.44134">
        <ele>69.35</ele>
        <time>2021-07-29T19:23:37Z</time>
      </trkpt>
      <trkpt lat="49.1761" lon="-0.44129">
        <ele>69.35</ele>
        <time>2021-07-29T19:23:38Z</time>
      </trkpt>
      <trkpt lat="49.17611" lon="-0.44124">
        <ele>68.87</ele>
        <time>2021-07-29T19:23:39Z</time>
      </trkpt>
      <trkpt lat="49.17613" lon="-0.44118">
        <ele>68.87</ele>
        <time>2021-07-29T19:23:40Z</time>
      </trkpt>
      <trkpt lat="49.17614" lon="-0.44115">
        <ele>68.87</ele>
        <time>2021-07-29T19:23:41Z</time>
      </trkpt>
      <trkpt lat="49.17613" lon="-0.44109">
        <ele>68.39</ele>
        <time>2021-07-29T19:23:42Z</time>
      </trkpt>
      <trkpt lat="49.17613" lon="-0.44102">
        <ele>68.39</ele>
        <time>2021-07-29T19:23:43Z</time>
      </trkpt>
      <trkpt lat="49.17612" lon="-0.44094">
        <ele>67.91</ele>
        <time>2021-07-29T19:23:44Z</time>
      </trkpt>
      <trkpt lat="49.17612" lon="-0.44086">
        <ele>67.91</ele>
        <time>2021-07-29T19:23:45Z</time>
      </trkpt>
      <trkpt lat="49.17606" lon="-0.44002">
        <ele>65.03</ele>
        <time>2021-07-29T19:23:54Z</time>
      </trkpt>
      <trkpt lat="49.17605" lon="-0.43992">
        <ele>65.03</ele>
        <time>2021-07-29T19:23:55Z</time>
      </trkpt>
      <trkpt lat="49.17599" lon="-0.43897">
        <ele>64.07</ele>
        <time>2021-07-29T19:24:07Z</time>
      </trkpt>
      <trkpt lat="49.17594" lon="-0.4382">
        <ele>60.22</ele>
        <time>2021-07-29T19:24:20Z</time>
      </trkpt>
      <trkpt lat="49.17584" lon="-0.43704">
        <ele>56.37</ele>
        <time>2021-07-29T19:24:31Z</time>
      </trkpt>
      <trkpt lat="49.17568" lon="-0.43491">
        <ele>53.01</ele>
        <time>2021-07-29T19:24:45Z</time>
      </trkpt>
      <trkpt lat="49.17551" lon="-0.43251">
        <ele>52.53</ele>
        <time>2021-07-29T19:25:00Z</time>
      </trkpt>
      <trkpt lat="49.17551" lon="-0.43229">
        <ele>52.05</ele>
        <time>2021-07-29T19:25:01Z</time>
      </trkpt>
      <trkpt lat="49.17551" lon="-0.43229">
        <ele>51.57</ele>
        <time>2021-07-29T19:25:02Z</time>
      </trkpt>
      <trkpt lat="49.17559" lon="-0.43217">
        <ele>51.57</ele>
        <time>2021-07-29T19:25:03Z</time>
      </trkpt>
      <trkpt lat="49.17565" lon="-0.43208">
        <ele>52.05</ele>
        <time>2021-07-29T19:25:04Z</time>
      </trkpt>
      <trkpt lat="49.17571" lon="-0.43199">
        <ele>52.05</ele>
        <time>2021-07-29T19:25:05Z</time>
      </trkpt>
      <trkpt lat="49.17593" lon="-0.43166">
        <ele>51.57</ele>
        <time>2021-07-29T19:25:12Z</time>
      </trkpt>
      <trkpt lat="49.17596" lon="-0.4316">
        <ele>51.57</ele>
        <time>2021-07-29T19:25:15Z</time>
      </trkpt>
      <trkpt lat="49.17599" lon="-0.43159">
        <ele>51.57</ele>
        <time>2021-07-29T19:25:16Z</time>
      </trkpt>
      <trkpt lat="49.17603" lon="-0.43158">
        <ele>52.05</ele>
        <time>2021-07-29T19:25:17Z</time>
      </trkpt>
      <trkpt lat="49.17605" lon="-0.43158">
        <ele>52.05</ele>
        <time>2021-07-29T19:25:18Z</time>
      </trkpt>
      <trkpt lat="49.1761" lon="-0.43165">
        <ele>52.53</ele>
        <time>2021-07-29T19:25:19Z</time>
      </trkpt>
      <trkpt lat="49.17615" lon="-0.43173">
        <ele>52.53</ele>
        <time>2021-07-29T19:25:20Z</time>
      </trkpt>
      <trkpt lat="49.17621" lon="-0.43182">
        <ele>53.01</ele>
        <time>2021-07-29T19:25:21Z</time>
      </trkpt>
      <trkpt lat="49.17701" lon="-0.43311">
        <ele>50.13</ele>
        <time>2021-07-29T19:25:31Z</time>
      </trkpt>
      <trkpt lat="49.17845" lon="-0.43576">
        <ele>52.05</ele>
        <time>2021-07-29T19:25:46Z</time>
      </trkpt>
      <trkpt lat="49.18017" lon="-0.43898">
        <ele>54.45</ele>
        <time>2021-07-29T19:26:04Z</time>
      </trkpt>
      <trkpt lat="49.18118" lon="-0.44034">
        <ele>55.41</ele>
        <time>2021-07-29T19:26:14Z</time>
      </trkpt>
      <trkpt lat="49.18197" lon="-0.44074">
        <ele>54.45</ele>
        <time>2021-07-29T19:26:22Z</time>
      </trkpt>
      <trkpt lat="49.18282" lon="-0.44073">
        <ele>53.97</ele>
        <time>2021-07-29T19:26:33Z</time>
      </trkpt>
      <trkpt lat="49.18301" lon="-0.44069">
        <ele>54.93</ele>
        <time>2021-07-29T19:26:43Z</time>
      </trkpt>
      <trkpt lat="49.18316" lon="-0.44066">
        <ele>54.93</ele>
        <time>2021-07-29T19:27:04Z</time>
      </trkpt>
      <trkpt lat="49.18326" lon="-0.44064">
        <ele>54.45</ele>
        <time>2021-07-29T19:27:16Z</time>
      </trkpt>
      <trkpt lat="49.18341" lon="-0.4406">
        <ele>54.45</ele>
        <time>2021-07-29T19:27:26Z</time>
      </trkpt>
      <trkpt lat="49.18345" lon="-0.44059">
        <ele>54.45</ele>
        <time>2021-07-29T19:27:27Z</time>
      </trkpt>
      <trkpt lat="49.18349" lon="-0.44059">
        <ele>54.45</ele>
        <time>2021-07-29T19:27:28Z</time>
      </trkpt>
      <trkpt lat="49.18353" lon="-0.44058">
        <ele>53.97</ele>
        <time>2021-07-29T19:27:29Z</time>
      </trkpt>
      <trkpt lat="49.18422" lon="-0.44073">
        <ele>51.57</ele>
        <time>2021-07-29T19:27:38Z</time>
      </trkpt>
      <trkpt lat="49.1857" lon="-0.44118">
        <ele>50.13</ele>
        <time>2021-07-29T19:27:53Z</time>
      </trkpt>
      <trkpt lat="49.18718" lon="-0.44165">
        <ele>49.65</ele>
        <time>2021-07-29T19:28:07Z</time>
      </trkpt>
      <trkpt lat="49.18815" lon="-0.44175">
        <ele>48.68</ele>
        <time>2021-07-29T19:28:16Z</time>
      </trkpt>
      <trkpt lat="49.18932" lon="-0.4414">
        <ele>51.57</ele>
        <time>2021-07-29T19:28:24Z</time>
      </trkpt>
      <trkpt lat="49.19029" lon="-0.44096">
        <ele>52.53</ele>
        <time>2021-07-29T19:28:33Z</time>
      </trkpt>
      <trkpt lat="49.19108" lon="-0.44061">
        <ele>53.49</ele>
        <time>2021-07-29T19:28:45Z</time>
      </trkpt>
      <trkpt lat="49.19118" lon="-0.44056">
        <ele>53.97</ele>
        <time>2021-07-29T19:29:00Z</time>
      </trkpt>
      <trkpt lat="49.19136" lon="-0.44048">
        <ele>54.45</ele>
        <time>2021-07-29T19:29:07Z</time>
      </trkpt>
      <trkpt lat="49.19139" lon="-0.44047">
        <ele>54.45</ele>
        <time>2021-07-29T19:29:08Z</time>
      </trkpt>
      <trkpt lat="49.19148" lon="-0.44014">
        <ele>55.41</ele>
        <time>2021-07-29T19:29:11Z</time>
      </trkpt>
      <trkpt lat="49.19152" lon="-0.44009">
        <ele>55.41</ele>
        <time>2021-07-29T19:29:12Z</time>
      </trkpt>
      <trkpt lat="49.19158" lon="-0.44008">
        <ele>55.89</ele>
        <time>2021-07-29T19:29:13Z</time>
      </trkpt>
      <trkpt lat="49.19162" lon="-0.44008">
        <ele>55.89</ele>
        <time>2021-07-29T19:29:14Z</time>
      </trkpt>
      <trkpt lat="49.19166" lon="-0.44008">
        <ele>55.89</ele>
        <time>2021-07-29T19:29:15Z</time>
      </trkpt>
      <trkpt lat="49.19171" lon="-0.44008">
        <ele>55.89</ele>
        <time>2021-07-29T19:29:16Z</time>
      </trkpt>
      <trkpt lat="49.19174" lon="-0.44008">
        <ele>55.89</ele>
        <time>2021-07-29T19:29:17Z</time>
      </trkpt>
      <trkpt lat="49.19174" lon="-0.44008">
        <ele>55.89</ele>
        <time>2021-07-29T19:29:18Z</time>
      </trkpt>
      <trkpt lat="49.19191" lon="-0.4402">
        <ele>55.89</ele>
        <time>2021-07-29T19:29:19Z</time>
      </trkpt>
      <trkpt lat="49.19197" lon="-0.44016">
        <ele>55.89</ele>
        <time>2021-07-29T19:29:20Z</time>
      </trkpt>
      <trkpt lat="49.19204" lon="-0.44012">
        <ele>56.37</ele>
        <time>2021-07-29T19:29:21Z</time>
      </trkpt>
      <trkpt lat="49.19212" lon="-0.44008">
        <ele>56.37</ele>
        <time>2021-07-29T19:29:22Z</time>
      </trkpt>
      <trkpt lat="49.19317" lon="-0.43957">
        <ele>56.37</ele>
        <time>2021-07-29T19:29:32Z</time>
      </trkpt>
      <trkpt lat="49.19366" lon="-0.43921">
        <ele>58.3</ele>
        <time>2021-07-29T19:29:38Z</time>
      </trkpt>
      <trkpt lat="49.19382" lon="-0.439">
        <ele>57.82</ele>
        <time>2021-07-29T19:29:39Z</time>
      </trkpt>
      <trkpt lat="49.19382" lon="-0.439">
        <ele>58.3</ele>
        <time>2021-07-29T19:29:40Z</time>
      </trkpt>
      <trkpt lat="49.19387" lon="-0.43892">
        <ele>58.78</ele>
        <time>2021-07-29T19:29:41Z</time>
      </trkpt>
      <trkpt lat="49.1939" lon="-0.43883">
        <ele>59.26</ele>
        <time>2021-07-29T19:29:42Z</time>
      </trkpt>
      <trkpt lat="49.19393" lon="-0.43877">
        <ele>59.74</ele>
        <time>2021-07-29T19:29:49Z</time>
      </trkpt>
      <trkpt lat="49.19395" lon="-0.43872">
        <ele>60.22</ele>
        <time>2021-07-29T19:29:52Z</time>
      </trkpt>
      <trkpt lat="49.19397" lon="-0.43868">
        <ele>60.22</ele>
        <time>2021-07-29T19:29:53Z</time>
      </trkpt>
      <trkpt lat="49.19396" lon="-0.43861">
        <ele>60.7</ele>
        <time>2021-07-29T19:29:54Z</time>
      </trkpt>
      <trkpt lat="49.19395" lon="-0.43847">
        <ele>61.18</ele>
        <time>2021-07-29T19:29:56Z</time>
      </trkpt>
      <trkpt lat="49.19398" lon="-0.43833">
        <ele>61.18</ele>
        <time>2021-07-29T19:29:57Z</time>
      </trkpt>
      <trkpt lat="49.19394" lon="-0.4382">
        <ele>61.66</ele>
        <time>2021-07-29T19:29:58Z</time>
      </trkpt>
      <trkpt lat="49.19388" lon="-0.43812">
        <ele>61.66</ele>
        <time>2021-07-29T19:29:59Z</time>
      </trkpt>
      <trkpt lat="49.19382" lon="-0.43803">
        <ele>62.14</ele>
        <time>2021-07-29T19:30:00Z</time>
      </trkpt>
      <trkpt lat="49.19376" lon="-0.43794">
        <ele>62.14</ele>
        <time>2021-07-29T19:30:01Z</time>
      </trkpt>
      <trkpt lat="49.19359" lon="-0.43785">
        <ele>62.62</ele>
        <time>2021-07-29T19:30:02Z</time>
      </trkpt>
      <trkpt lat="49.19348" lon="-0.43788">
        <ele>62.62</ele>
        <time>2021-07-29T19:30:03Z</time>
      </trkpt>
      <trkpt lat="49.19348" lon="-0.43788">
        <ele>63.58</ele>
        <time>2021-07-29T19:30:04Z</time>
      </trkpt>
      <trkpt lat="49.19327" lon="-0.43798">
        <ele>64.07</ele>
        <time>2021-07-29T19:30:05Z</time>
      </trkpt>
      <trkpt lat="49.19319" lon="-0.4381">
        <ele>63.58</ele>
        <time>2021-07-29T19:30:06Z</time>
      </trkpt>
      <trkpt lat="49.19319" lon="-0.4381">
        <ele>63.58</ele>
        <time>2021-07-29T19:30:07Z</time>
      </trkpt>
      <trkpt lat="49.19315" lon="-0.43823">
        <ele>62.62</ele>
        <time>2021-07-29T19:30:08Z</time>
      </trkpt>
      <trkpt lat="49.19312" lon="-0.4384">
        <ele>62.14</ele>
        <time>2021-07-29T19:30:09Z</time>
      </trkpt>
      <trkpt lat="49.19309" lon="-0.43858">
        <ele>61.66</ele>
        <time>2021-07-29T19:30:10Z</time>
      </trkpt>
      <trkpt lat="49.1931" lon="-0.43872">
        <ele>62.14</ele>
        <time>2021-07-29T19:30:11Z</time>
      </trkpt>
      <trkpt lat="49.19313" lon="-0.4389">
        <ele>62.62</ele>
        <time>2021-07-29T19:30:12Z</time>
      </trkpt>
      <trkpt lat="49.19316" lon="-0.4391">
        <ele>63.1</ele>
        <time>2021-07-29T19:30:13Z</time>
      </trkpt>
      <trkpt lat="49.19318" lon="-0.43929">
        <ele>63.58</ele>
        <time>2021-07-29T19:30:14Z</time>
      </trkpt>
      <trkpt lat="49.19364" lon="-0.44198">
        <ele>63.58</ele>
        <time>2021-07-29T19:30:27Z</time>
      </trkpt>
      <trkpt lat="49.19412" lon="-0.44444">
        <ele>63.58</ele>
        <time>2021-07-29T19:30:37Z</time>
      </trkpt>
      <trkpt lat="49.19502" lon="-0.44906">
        <ele>60.22</ele>
        <time>2021-07-29T19:30:53Z</time>
      </trkpt>
      <trkpt lat="49.19644" lon="-0.4563">
        <ele>63.1</ele>
        <time>2021-07-29T19:31:18Z</time>
      </trkpt>
      <trkpt lat="49.19725" lon="-0.46133">
        <ele>62.62</ele>
        <time>2021-07-29T19:31:35Z</time>
      </trkpt>
      <trkpt lat="49.19755" lon="-0.46622">
        <ele>55.41</ele>
        <time>2021-07-29T19:31:51Z</time>
      </trkpt>
      <trkpt lat="49.19771" lon="-0.47189">
        <ele>52.05</ele>
        <time>2021-07-29T19:32:09Z</time>
      </trkpt>
      <trkpt lat="49.19808" lon="-0.47713">
        <ele>53.97</ele>
        <time>2021-07-29T19:32:25Z</time>
      </trkpt>
      <trkpt lat="49.19887" lon="-0.4804">
        <ele>50.61</ele>
        <time>2021-07-29T19:32:35Z</time>
      </trkpt>
      <trkpt lat="49.20074" lon="-0.48679">
        <ele>53.97</ele>
        <time>2021-07-29T19:32:55Z</time>
      </trkpt>
      <trkpt lat="49.20282" lon="-0.494">
        <ele>56.37</ele>
        <time>2021-07-29T19:33:18Z</time>
      </trkpt>
      <trkpt lat="49.20525" lon="-0.5025">
        <ele>60.22</ele>
        <time>2021-07-29T19:33:44Z</time>
      </trkpt>
      <trkpt lat="49.20766" lon="-0.51094">
        <ele>64.07</ele>
        <time>2021-07-29T19:34:09Z</time>
      </trkpt>
      <trkpt lat="49.20951" lon="-0.51689">
        <ele>66.47</ele>
        <time>2021-07-29T19:34:27Z</time>
      </trkpt>
      <trkpt lat="49.2111" lon="-0.52018">
        <ele>65.99</ele>
        <time>2021-07-29T19:34:38Z</time>
      </trkpt>
      <trkpt lat="49.21534" lon="-0.528">
        <ele>68.87</ele>
        <time>2021-07-29T19:35:05Z</time>
      </trkpt>
      <trkpt lat="49.21712" lon="-0.5322">
        <ele>65.51</ele>
        <time>2021-07-29T19:35:18Z</time>
      </trkpt>
      <trkpt lat="49.21886" lon="-0.53726">
        <ele>64.55</ele>
        <time>2021-07-29T19:35:33Z</time>
      </trkpt>
      <trkpt lat="49.22073" lon="-0.54285">
        <ele>67.43</ele>
        <time>2021-07-29T19:35:50Z</time>
      </trkpt>
      <trkpt lat="49.22308" lon="-0.55002">
        <ele>69.83</ele>
        <time>2021-07-29T19:36:12Z</time>
      </trkpt>
      <trkpt lat="49.22397" lon="-0.55341">
        <ele>71.76</ele>
        <time>2021-07-29T19:36:22Z</time>
      </trkpt>
      <trkpt lat="49.22447" lon="-0.55732">
        <ele>65.03</ele>
        <time>2021-07-29T19:36:32Z</time>
      </trkpt>
      <trkpt lat="49.22489" lon="-0.56135">
        <ele>56.37</ele>
        <time>2021-07-29T19:36:42Z</time>
      </trkpt>
      <trkpt lat="49.2257" lon="-0.56477">
        <ele>53.97</ele>
        <time>2021-07-29T19:36:51Z</time>
      </trkpt>
      <trkpt lat="49.22695" lon="-0.56812">
        <ele>60.22</ele>
        <time>2021-07-29T19:37:01Z</time>
      </trkpt>
      <trkpt lat="49.22856" lon="-0.57097">
        <ele>64.55</ele>
        <time>2021-07-29T19:37:11Z</time>
      </trkpt>
      <trkpt lat="49.23068" lon="-0.57377">
        <ele>68.87</ele>
        <time>2021-07-29T19:37:21Z</time>
      </trkpt>
      <trkpt lat="49.23233" lon="-0.57671">
        <ele>71.27</ele>
        <time>2021-07-29T19:37:32Z</time>
      </trkpt>
      <trkpt lat="49.23402" lon="-0.58103">
        <ele>72.24</ele>
        <time>2021-07-29T19:37:45Z</time>
      </trkpt>
      <trkpt lat="49.23635" lon="-0.58743">
        <ele>73.68</ele>
        <time>2021-07-29T19:38:04Z</time>
      </trkpt>
      <trkpt lat="49.23899" lon="-0.59494">
        <ele>77.04</ele>
        <time>2021-07-29T19:38:26Z</time>
      </trkpt>
      <trkpt lat="49.2396" lon="-0.59838">
        <ele>78.48</ele>
        <time>2021-07-29T19:38:35Z</time>
      </trkpt>
      <trkpt lat="49.24033" lon="-0.60213">
        <ele>73.68</ele>
        <time>2021-07-29T19:38:45Z</time>
      </trkpt>
      <trkpt lat="49.2416" lon="-0.60529">
        <ele>67.91</ele>
        <time>2021-07-29T19:38:53Z</time>
      </trkpt>
      <trkpt lat="49.24338" lon="-0.60827">
        <ele>62.62</ele>
        <time>2021-07-29T19:39:04Z</time>
      </trkpt>
      <trkpt lat="49.24473" lon="-0.61126">
        <ele>55.89</ele>
        <time>2021-07-29T19:39:13Z</time>
      </trkpt>
      <trkpt lat="49.24625" lon="-0.61596">
        <ele>59.26</ele>
        <time>2021-07-29T19:39:27Z</time>
      </trkpt>
      <trkpt lat="49.24723" lon="-0.61996">
        <ele>57.34</ele>
        <time>2021-07-29T19:39:38Z</time>
      </trkpt>
      <trkpt lat="49.24812" lon="-0.62585">
        <ele>51.57</ele>
        <time>2021-07-29T19:39:53Z</time>
      </trkpt>
      <trkpt lat="49.24913" lon="-0.63028">
        <ele>41.47</ele>
        <time>2021-07-29T19:40:05Z</time>
      </trkpt>
      <trkpt lat="49.25103" lon="-0.63703">
        <ele>40.03</ele>
        <time>2021-07-29T19:40:24Z</time>
      </trkpt>
      <trkpt lat="49.25202" lon="-0.64084">
        <ele>53.49</ele>
        <time>2021-07-29T19:40:36Z</time>
      </trkpt>
      <trkpt lat="49.25266" lon="-0.64458">
        <ele>62.14</ele>
        <time>2021-07-29T19:40:48Z</time>
      </trkpt>
      <trkpt lat="49.25316" lon="-0.64687">
        <ele>67.91</ele>
        <time>2021-07-29T19:40:57Z</time>
      </trkpt>
      <trkpt lat="49.2535" lon="-0.64793">
        <ele>69.35</ele>
        <time>2021-07-29T19:41:02Z</time>
      </trkpt>
      <trkpt lat="49.25357" lon="-0.6481">
        <ele>70.79</ele>
        <time>2021-07-29T19:41:03Z</time>
      </trkpt>
      <trkpt lat="49.25366" lon="-0.64822">
        <ele>70.79</ele>
        <time>2021-07-29T19:41:04Z</time>
      </trkpt>
      <trkpt lat="49.25377" lon="-0.64834">
        <ele>69.83</ele>
        <time>2021-07-29T19:41:05Z</time>
      </trkpt>
      <trkpt lat="49.25389" lon="-0.64841">
        <ele>70.31</ele>
        <time>2021-07-29T19:41:06Z</time>
      </trkpt>
      <trkpt lat="49.25403" lon="-0.64843">
        <ele>71.27</ele>
        <time>2021-07-29T19:41:07Z</time>
      </trkpt>
      <trkpt lat="49.25417" lon="-0.64843">
        <ele>71.76</ele>
        <time>2021-07-29T19:41:08Z</time>
      </trkpt>
      <trkpt lat="49.25431" lon="-0.64842">
        <ele>72.72</ele>
        <time>2021-07-29T19:41:09Z</time>
      </trkpt>
      <trkpt lat="49.25445" lon="-0.64838">
        <ele>72.72</ele>
        <time>2021-07-29T19:41:10Z</time>
      </trkpt>
      <trkpt lat="49.2557" lon="-0.64783">
        <ele>69.35</ele>
        <time>2021-07-29T19:41:20Z</time>
      </trkpt>
      <trkpt lat="49.2561" lon="-0.64727">
        <ele>67.91</ele>
        <time>2021-07-29T19:41:26Z</time>
      </trkpt>
      <trkpt lat="49.25613" lon="-0.64718">
        <ele>68.39</ele>
        <time>2021-07-29T19:41:27Z</time>
      </trkpt>
      <trkpt lat="49.25617" lon="-0.64708">
        <ele>67.91</ele>
        <time>2021-07-29T19:41:28Z</time>
      </trkpt>
      <trkpt lat="49.25617" lon="-0.64701">
        <ele>68.39</ele>
        <time>2021-07-29T19:41:29Z</time>
      </trkpt>
      <trkpt lat="49.25617" lon="-0.64688">
        <ele>68.39</ele>
        <time>2021-07-29T19:41:30Z</time>
      </trkpt>
      <trkpt lat="49.25618" lon="-0.64671">
        <ele>68.39</ele>
        <time>2021-07-29T19:41:31Z</time>
      </trkpt>
      <trkpt lat="49.25622" lon="-0.6466">
        <ele>68.39</ele>
        <time>2021-07-29T19:41:32Z</time>
      </trkpt>
      <trkpt lat="49.25625" lon="-0.64647">
        <ele>67.91</ele>
        <time>2021-07-29T19:41:33Z</time>
      </trkpt>
      <trkpt lat="49.25632" lon="-0.64639">
        <ele>67.91</ele>
        <time>2021-07-29T19:41:34Z</time>
      </trkpt>
      <trkpt lat="49.2564" lon="-0.64633">
        <ele>67.91</ele>
        <time>2021-07-29T19:41:35Z</time>
      </trkpt>
      <trkpt lat="49.25647" lon="-0.64628">
        <ele>67.43</ele>
        <time>2021-07-29T19:41:36Z</time>
      </trkpt>
      <trkpt lat="49.25655" lon="-0.64633">
        <ele>67.43</ele>
        <time>2021-07-29T19:41:37Z</time>
      </trkpt>
      <trkpt lat="49.25664" lon="-0.64638">
        <ele>67.91</ele>
        <time>2021-07-29T19:41:38Z</time>
      </trkpt>
      <trkpt lat="49.25671" lon="-0.64646">
        <ele>68.39</ele>
        <time>2021-07-29T19:41:39Z</time>
      </trkpt>
      <trkpt lat="49.25678" lon="-0.64657">
        <ele>68.87</ele>
        <time>2021-07-29T19:41:40Z</time>
      </trkpt>
      <trkpt lat="49.25685" lon="-0.64667">
        <ele>67.91</ele>
        <time>2021-07-29T19:41:41Z</time>
      </trkpt>
      <trkpt lat="49.25688" lon="-0.64681">
        <ele>68.39</ele>
        <time>2021-07-29T19:41:42Z</time>
      </trkpt>
      <trkpt lat="49.25691" lon="-0.64697">
        <ele>68.39</ele>
        <time>2021-07-29T19:41:43Z</time>
      </trkpt>
      <trkpt lat="49.25694" lon="-0.64712">
        <ele>68.39</ele>
        <time>2021-07-29T19:41:44Z</time>
      </trkpt>
      <trkpt lat="49.25693" lon="-0.64726">
        <ele>68.87</ele>
        <time>2021-07-29T19:41:45Z</time>
      </trkpt>
      <trkpt lat="49.25694" lon="-0.64758">
        <ele>69.35</ele>
        <time>2021-07-29T19:41:47Z</time>
      </trkpt>
      <trkpt lat="49.25699" lon="-0.64772">
        <ele>68.39</ele>
        <time>2021-07-29T19:41:48Z</time>
      </trkpt>
      <trkpt lat="49.25704" lon="-0.64785">
        <ele>66.95</ele>
        <time>2021-07-29T19:41:49Z</time>
      </trkpt>
      <trkpt lat="49.25762" lon="-0.64952">
        <ele>65.03</ele>
        <time>2021-07-29T19:41:58Z</time>
      </trkpt>
      <trkpt lat="49.2585" lon="-0.65167">
        <ele>64.55</ele>
        <time>2021-07-29T19:42:07Z</time>
      </trkpt>
      <trkpt lat="49.26018" lon="-0.65577">
        <ele>61.66</ele>
        <time>2021-07-29T19:42:21Z</time>
      </trkpt>
      <trkpt lat="49.26233" lon="-0.66101">
        <ele>57.34</ele>
        <time>2021-07-29T19:42:37Z</time>
      </trkpt>
      <trkpt lat="49.26422" lon="-0.66578">
        <ele>55.41</ele>
        <time>2021-07-29T19:42:51Z</time>
      </trkpt>
      <trkpt lat="49.26492" lon="-0.66917">
        <ele>55.41</ele>
        <time>2021-07-29T19:43:00Z</time>
      </trkpt>
      <trkpt lat="49.26575" lon="-0.6734">
        <ele>51.09</ele>
        <time>2021-07-29T19:43:11Z</time>
      </trkpt>
      <trkpt lat="49.26738" lon="-0.67812">
        <ele>48.2</ele>
        <time>2021-07-29T19:43:24Z</time>
      </trkpt>
      <trkpt lat="49.26854" lon="-0.68145">
        <ele>52.05</ele>
        <time>2021-07-29T19:43:34Z</time>
      </trkpt>
      <trkpt lat="49.26934" lon="-0.68355">
        <ele>51.09</ele>
        <time>2021-07-29T19:43:43Z</time>
      </trkpt>
      <trkpt lat="49.27071" lon="-0.68685">
        <ele>45.8</ele>
        <time>2021-07-29T19:44:00Z</time>
      </trkpt>
      <trkpt lat="49.2714" lon="-0.68848">
        <ele>44.84</ele>
        <time>2021-07-29T19:44:12Z</time>
      </trkpt>
      <trkpt lat="49.27177" lon="-0.68933">
        <ele>43.88</ele>
        <time>2021-07-29T19:44:23Z</time>
      </trkpt>
      <trkpt lat="49.27186" lon="-0.68954">
        <ele>46.76</ele>
        <time>2021-07-29T19:44:31Z</time>
      </trkpt>
      <trkpt lat="49.272" lon="-0.68974">
        <ele>48.2</ele>
        <time>2021-07-29T19:44:37Z</time>
      </trkpt>
      <trkpt lat="49.27204" lon="-0.68978">
        <ele>48.2</ele>
        <time>2021-07-29T19:44:38Z</time>
      </trkpt>
      <trkpt lat="49.27208" lon="-0.68982">
        <ele>48.2</ele>
        <time>2021-07-29T19:44:39Z</time>
      </trkpt>
      <trkpt lat="49.27212" lon="-0.68985">
        <ele>48.2</ele>
        <time>2021-07-29T19:44:40Z</time>
      </trkpt>
      <trkpt lat="49.27217" lon="-0.68988">
        <ele>48.2</ele>
        <time>2021-07-29T19:44:41Z</time>
      </trkpt>
      <trkpt lat="49.2722" lon="-0.68991">
        <ele>47.72</ele>
        <time>2021-07-29T19:44:42Z</time>
      </trkpt>
      <trkpt lat="49.27229" lon="-0.68993">
        <ele>47.72</ele>
        <time>2021-07-29T19:44:43Z</time>
      </trkpt>
      <trkpt lat="49.27229" lon="-0.68993">
        <ele>47.72</ele>
        <time>2021-07-29T19:44:44Z</time>
      </trkpt>
      <trkpt lat="49.27233" lon="-0.68994">
        <ele>47.72</ele>
        <time>2021-07-29T19:44:45Z</time>
      </trkpt>
      <trkpt lat="49.27244" lon="-0.68995">
        <ele>48.2</ele>
        <time>2021-07-29T19:44:46Z</time>
      </trkpt>
      <trkpt lat="49.27244" lon="-0.68995">
        <ele>48.68</ele>
        <time>2021-07-29T19:44:47Z</time>
      </trkpt>
      <trkpt lat="49.27249" lon="-0.68994">
        <ele>49.16</ele>
        <time>2021-07-29T19:44:48Z</time>
      </trkpt>
      <trkpt lat="49.27254" lon="-0.68989">
        <ele>49.16</ele>
        <time>2021-07-29T19:44:49Z</time>
      </trkpt>
      <trkpt lat="49.27263" lon="-0.68981">
        <ele>49.65</ele>
        <time>2021-07-29T19:44:50Z</time>
      </trkpt>
      <trkpt lat="49.27263" lon="-0.68981">
        <ele>49.65</ele>
        <time>2021-07-29T19:44:51Z</time>
      </trkpt>
      <trkpt lat="49.27298" lon="-0.68934">
        <ele>52.05</ele>
        <time>2021-07-29T19:45:02Z</time>
      </trkpt>
      <trkpt lat="49.27301" lon="-0.68929">
        <ele>52.53</ele>
        <time>2021-07-29T19:45:03Z</time>
      </trkpt>
      <trkpt lat="49.27308" lon="-0.68914">
        <ele>53.01</ele>
        <time>2021-07-29T19:45:04Z</time>
      </trkpt>
      <trkpt lat="49.27309" lon="-0.68909">
        <ele>53.49</ele>
        <time>2021-07-29T19:45:06Z</time>
      </trkpt>
      <trkpt lat="49.27312" lon="-0.68901">
        <ele>53.97</ele>
        <time>2021-07-29T19:45:07Z</time>
      </trkpt>
      <trkpt lat="49.27315" lon="-0.68896">
        <ele>54.45</ele>
        <time>2021-07-29T19:45:08Z</time>
      </trkpt>
      <trkpt lat="49.27323" lon="-0.68898">
        <ele>54.45</ele>
        <time>2021-07-29T19:45:09Z</time>
      </trkpt>
      <trkpt lat="49.27329" lon="-0.68896">
        <ele>54.45</ele>
        <time>2021-07-29T19:45:10Z</time>
      </trkpt>
      <trkpt lat="49.27333" lon="-0.68892">
        <ele>54.45</ele>
        <time>2021-07-29T19:45:11Z</time>
      </trkpt>
      <trkpt lat="49.2734" lon="-0.68887">
        <ele>54.93</ele>
        <time>2021-07-29T19:45:12Z</time>
      </trkpt>
      <trkpt lat="49.2734" lon="-0.68887">
        <ele>54.93</ele>
        <time>2021-07-29T19:45:13Z</time>
      </trkpt>
      <trkpt lat="49.27343" lon="-0.68884">
        <ele>55.41</ele>
        <time>2021-07-29T19:45:14Z</time>
      </trkpt>
      <trkpt lat="49.27345" lon="-0.68882">
        <ele>55.41</ele>
        <time>2021-07-29T19:45:15Z</time>
      </trkpt>
      <trkpt lat="49.27362" lon="-0.68863">
        <ele>56.86</ele>
        <time>2021-07-29T19:45:27Z</time>
      </trkpt>
      <trkpt lat="49.27406" lon="-0.68811">
        <ele>59.26</ele>
        <time>2021-07-29T19:45:39Z</time>
      </trkpt>
      <trkpt lat="49.27418" lon="-0.6879">
        <ele>59.74</ele>
        <time>2021-07-29T19:45:43Z</time>
      </trkpt>
      <trkpt lat="49.27421" lon="-0.68782">
        <ele>60.22</ele>
        <time>2021-07-29T19:45:44Z</time>
      </trkpt>
      <trkpt lat="49.27423" lon="-0.68775">
        <ele>60.22</ele>
        <time>2021-07-29T19:45:45Z</time>
      </trkpt>
      <trkpt lat="49.27425" lon="-0.68768">
        <ele>60.22</ele>
        <time>2021-07-29T19:45:46Z</time>
      </trkpt>
      <trkpt lat="49.27428" lon="-0.68761">
        <ele>60.22</ele>
        <time>2021-07-29T19:45:47Z</time>
      </trkpt>
      <trkpt lat="49.27428" lon="-0.68756">
        <ele>60.22</ele>
        <time>2021-07-29T19:45:48Z</time>
      </trkpt>
      <trkpt lat="49.27428" lon="-0.68748">
        <ele>60.22</ele>
        <time>2021-07-29T19:45:49Z</time>
      </trkpt>
      <trkpt lat="49.27433" lon="-0.68736">
        <ele>60.7</ele>
        <time>2021-07-29T19:45:50Z</time>
      </trkpt>
      <trkpt lat="49.27437" lon="-0.68733">
        <ele>60.7</ele>
        <time>2021-07-29T19:45:51Z</time>
      </trkpt>
      <trkpt lat="49.27439" lon="-0.68731">
        <ele>61.18</ele>
        <time>2021-07-29T19:45:52Z</time>
      </trkpt>
      <trkpt lat="49.27451" lon="-0.68737">
        <ele>61.66</ele>
        <time>2021-07-29T19:45:53Z</time>
      </trkpt>
      <trkpt lat="49.27456" lon="-0.68733">
        <ele>61.66</ele>
        <time>2021-07-29T19:45:54Z</time>
      </trkpt>
      <trkpt lat="49.27462" lon="-0.68728">
        <ele>62.14</ele>
        <time>2021-07-29T19:45:55Z</time>
      </trkpt>
      <trkpt lat="49.27469" lon="-0.68722">
        <ele>62.62</ele>
        <time>2021-07-29T19:45:56Z</time>
      </trkpt>
      <trkpt lat="49.27476" lon="-0.68716">
        <ele>62.62</ele>
        <time>2021-07-29T19:45:57Z</time>
      </trkpt>
      <trkpt lat="49.27484" lon="-0.68709">
        <ele>63.1</ele>
        <time>2021-07-29T19:45:58Z</time>
      </trkpt>
      <trkpt lat="49.27572" lon="-0.68599">
        <ele>66.47</ele>
        <time>2021-07-29T19:46:09Z</time>
      </trkpt>
      <trkpt lat="49.27686" lon="-0.68485">
        <ele>68.39</ele>
        <time>2021-07-29T19:46:22Z</time>
      </trkpt>
      <trkpt lat="49.27738" lon="-0.68463">
        <ele>68.39</ele>
        <time>2021-07-29T19:46:30Z</time>
      </trkpt>
      <trkpt lat="49.27743" lon="-0.68462">
        <ele>68.87</ele>
        <time>2021-07-29T19:46:40Z</time>
      </trkpt>
      <trkpt lat="49.27769" lon="-0.68457">
        <ele>68.39</ele>
        <time>2021-07-29T19:47:09Z</time>
      </trkpt>
      <trkpt lat="49.2782" lon="-0.68459">
        <ele>67.43</ele>
        <time>2021-07-29T19:47:29Z</time>
      </trkpt>
      <trkpt lat="49.27856" lon="-0.68474">
        <ele>64.55</ele>
        <time>2021-07-29T19:47:48Z</time>
      </trkpt>
      <trkpt lat="49.27858" lon="-0.68474">
        <ele>64.55</ele>
        <time>2021-07-29T19:48:05Z</time>
      </trkpt>
      <trkpt lat="49.27886" lon="-0.68486">
        <ele>65.51</ele>
        <time>2021-07-29T19:48:18Z</time>
      </trkpt>
      <trkpt lat="49.27945" lon="-0.6851">
        <ele>61.18</ele>
        <time>2021-07-29T19:48:28Z</time>
      </trkpt>
      <trkpt lat="49.28041" lon="-0.68548">
        <ele>55.41</ele>
        <time>2021-07-29T19:48:41Z</time>
      </trkpt>
      <trkpt lat="49.28134" lon="-0.68586">
        <ele>51.57</ele>
        <time>2021-07-29T19:48:53Z</time>
      </trkpt>
      <trkpt lat="49.28144" lon="-0.68591">
        <ele>50.13</ele>
        <time>2021-07-29T19:49:02Z</time>
      </trkpt>
      <trkpt lat="49.28163" lon="-0.68603">
        <ele>49.16</ele>
        <time>2021-07-29T19:50:11Z</time>
      </trkpt>
      <trkpt lat="49.28233" lon="-0.68662">
        <ele>45.8</ele>
        <time>2021-07-29T19:50:21Z</time>
      </trkpt>
      <trkpt lat="49.28266" lon="-0.68696">
        <ele>43.88</ele>
        <time>2021-07-29T19:50:29Z</time>
      </trkpt>
      <trkpt lat="49.28296" lon="-0.68739">
        <ele>41.95</ele>
        <time>2021-07-29T19:50:37Z</time>
      </trkpt>
      <trkpt lat="49.28303" lon="-0.68752">
        <ele>41.95</ele>
        <time>2021-07-29T19:50:38Z</time>
      </trkpt>
      <trkpt lat="49.28303" lon="-0.68752">
        <ele>41.47</ele>
        <time>2021-07-29T19:50:39Z</time>
      </trkpt>
      <trkpt lat="49.28309" lon="-0.68762">
        <ele>40.99</ele>
        <time>2021-07-29T19:50:40Z</time>
      </trkpt>
      <trkpt lat="49.28311" lon="-0.68766">
        <ele>40.51</ele>
        <time>2021-07-29T19:50:41Z</time>
      </trkpt>
      <trkpt lat="49.28313" lon="-0.6877">
        <ele>40.03</ele>
        <time>2021-07-29T19:50:42Z</time>
      </trkpt>
      <trkpt lat="49.28313" lon="-0.6877">
        <ele>39.55</ele>
        <time>2021-07-29T19:50:43Z</time>
      </trkpt>
      <trkpt lat="49.28315" lon="-0.68774">
        <ele>39.07</ele>
        <time>2021-07-29T19:50:44Z</time>
      </trkpt>
      <trkpt lat="49.28318" lon="-0.68781">
        <ele>39.07</ele>
        <time>2021-07-29T19:50:45Z</time>
      </trkpt>
      <trkpt lat="49.28318" lon="-0.68781">
        <ele>38.11</ele>
        <time>2021-07-29T19:50:46Z</time>
      </trkpt>
      <trkpt lat="49.28323" lon="-0.68793">
        <ele>37.63</ele>
        <time>2021-07-29T19:50:47Z</time>
      </trkpt>
      <trkpt lat="49.28323" lon="-0.68793">
        <ele>37.63</ele>
        <time>2021-07-29T19:50:48Z</time>
      </trkpt>
      <trkpt lat="49.28326" lon="-0.688">
        <ele>37.15</ele>
        <time>2021-07-29T19:50:49Z</time>
      </trkpt>
      <trkpt lat="49.28329" lon="-0.68808">
        <ele>37.15</ele>
        <time>2021-07-29T19:50:50Z</time>
      </trkpt>
      <trkpt lat="49.28332" lon="-0.68819">
        <ele>37.63</ele>
        <time>2021-07-29T19:50:51Z</time>
      </trkpt>
      <trkpt lat="49.28334" lon="-0.6883">
        <ele>37.63</ele>
        <time>2021-07-29T19:50:52Z</time>
      </trkpt>
      <trkpt lat="49.28337" lon="-0.68842">
        <ele>38.11</ele>
        <time>2021-07-29T19:50:53Z</time>
      </trkpt>
      <trkpt lat="49.28383" lon="-0.69032">
        <ele>38.59</ele>
        <time>2021-07-29T19:51:06Z</time>
      </trkpt>
      <trkpt lat="49.28411" lon="-0.69157">
        <ele>40.03</ele>
        <time>2021-07-29T19:51:17Z</time>
      </trkpt>
      <trkpt lat="49.2842" lon="-0.69216">
        <ele>40.51</ele>
        <time>2021-07-29T19:51:25Z</time>
      </trkpt>
      <trkpt lat="49.28421" lon="-0.69223">
        <ele>40.03</ele>
        <time>2021-07-29T19:51:26Z</time>
      </trkpt>
      <trkpt lat="49.28428" lon="-0.69235">
        <ele>40.03</ele>
        <time>2021-07-29T19:51:27Z</time>
      </trkpt>
      <trkpt lat="49.28438" lon="-0.69248">
        <ele>39.07</ele>
        <time>2021-07-29T19:51:30Z</time>
      </trkpt>
      <trkpt lat="49.28441" lon="-0.69258">
        <ele>39.07</ele>
        <time>2021-07-29T19:51:31Z</time>
      </trkpt>
      <trkpt lat="49.28444" lon="-0.69268">
        <ele>38.59</ele>
        <time>2021-07-29T19:51:32Z</time>
      </trkpt>
      <trkpt lat="49.28439" lon="-0.69299">
        <ele>38.59</ele>
        <time>2021-07-29T19:51:34Z</time>
      </trkpt>
      <trkpt lat="49.28444" lon="-0.6931">
        <ele>38.11</ele>
        <time>2021-07-29T19:51:35Z</time>
      </trkpt>
      <trkpt lat="49.28467" lon="-0.69456">
        <ele>35.71</ele>
        <time>2021-07-29T19:51:43Z</time>
      </trkpt>
      <trkpt lat="49.28455" lon="-0.69675">
        <ele>28.5</ele>
        <time>2021-07-29T19:51:53Z</time>
      </trkpt>
      <trkpt lat="49.28423" lon="-0.69963">
        <ele>31.86</ele>
        <time>2021-07-29T19:52:07Z</time>
      </trkpt>
      <trkpt lat="49.28392" lon="-0.70261">
        <ele>34.26</ele>
        <time>2021-07-29T19:52:23Z</time>
      </trkpt>
      <trkpt lat="49.2838" lon="-0.70369">
        <ele>34.74</ele>
        <time>2021-07-29T19:52:31Z</time>
      </trkpt>
      <trkpt lat="49.28379" lon="-0.70377">
        <ele>35.23</ele>
        <time>2021-07-29T19:52:32Z</time>
      </trkpt>
      <trkpt lat="49.28379" lon="-0.70379">
        <ele>35.71</ele>
        <time>2021-07-29T19:52:33Z</time>
      </trkpt>
      <trkpt lat="49.2839" lon="-0.70393">
        <ele>35.71</ele>
        <time>2021-07-29T19:52:34Z</time>
      </trkpt>
      <trkpt lat="49.2839" lon="-0.70393">
        <ele>36.19</ele>
        <time>2021-07-29T19:52:35Z</time>
      </trkpt>
      <trkpt lat="49.28394" lon="-0.70398">
        <ele>36.19</ele>
        <time>2021-07-29T19:52:36Z</time>
      </trkpt>
      <trkpt lat="49.284" lon="-0.70396">
        <ele>36.19</ele>
        <time>2021-07-29T19:52:37Z</time>
      </trkpt>
      <trkpt lat="49.28509" lon="-0.70385">
        <ele>36.67</ele>
        <time>2021-07-29T19:52:46Z</time>
      </trkpt>
      <trkpt lat="49.28663" lon="-0.70383">
        <ele>35.71</ele>
        <time>2021-07-29T19:52:57Z</time>
      </trkpt>
      <trkpt lat="49.28736" lon="-0.70383">
        <ele>35.71</ele>
        <time>2021-07-29T19:53:06Z</time>
      </trkpt>
      <trkpt lat="49.28755" lon="-0.70383">
        <ele>35.23</ele>
        <time>2021-07-29T19:53:07Z</time>
      </trkpt>
      <trkpt lat="49.28755" lon="-0.70383">
        <ele>35.71</ele>
        <time>2021-07-29T19:53:08Z</time>
      </trkpt>
      <trkpt lat="49.28853" lon="-0.70375">
        <ele>37.15</ele>
        <time>2021-07-29T19:53:18Z</time>
      </trkpt>
      <trkpt lat="49.28865" lon="-0.70373">
        <ele>37.15</ele>
        <time>2021-07-29T19:53:19Z</time>
      </trkpt>
      <trkpt lat="49.2887" lon="-0.70362">
        <ele>37.63</ele>
        <time>2021-07-29T19:53:20Z</time>
      </trkpt>
      <trkpt lat="49.2887" lon="-0.70362">
        <ele>38.11</ele>
        <time>2021-07-29T19:53:21Z</time>
      </trkpt>
      <trkpt lat="49.28876" lon="-0.70361">
        <ele>38.11</ele>
        <time>2021-07-29T19:53:22Z</time>
      </trkpt>
      <trkpt lat="49.28879" lon="-0.7036">
        <ele>38.59</ele>
        <time>2021-07-29T19:53:23Z</time>
      </trkpt>
      <trkpt lat="49.28889" lon="-0.70367">
        <ele>39.07</ele>
        <time>2021-07-29T19:53:24Z</time>
      </trkpt>
      <trkpt lat="49.28897" lon="-0.70365">
        <ele>39.07</ele>
        <time>2021-07-29T19:53:25Z</time>
      </trkpt>
      <trkpt lat="49.29009" lon="-0.7034">
        <ele>38.59</ele>
        <time>2021-07-29T19:53:36Z</time>
      </trkpt>
      <trkpt lat="49.29123" lon="-0.70325">
        <ele>40.03</ele>
        <time>2021-07-29T19:53:48Z</time>
      </trkpt>
      <trkpt lat="49.29201" lon="-0.70305">
        <ele>40.99</ele>
        <time>2021-07-29T19:53:58Z</time>
      </trkpt>
      <trkpt lat="49.29301" lon="-0.70274">
        <ele>39.07</ele>
        <time>2021-07-29T19:54:08Z</time>
      </trkpt>
      <trkpt lat="49.29442" lon="-0.70281">
        <ele>35.71</ele>
        <time>2021-07-29T19:54:19Z</time>
      </trkpt>
      <trkpt lat="49.29696" lon="-0.703">
        <ele>29.46</ele>
        <time>2021-07-29T19:54:35Z</time>
      </trkpt>
      <trkpt lat="49.29818" lon="-0.70308">
        <ele>27.05</ele>
        <time>2021-07-29T19:54:43Z</time>
      </trkpt>
      <trkpt lat="49.29995" lon="-0.7031">
        <ele>21.29</ele>
        <time>2021-07-29T19:54:58Z</time>
      </trkpt>
      <trkpt lat="49.30125" lon="-0.70313">
        <ele>17.92</ele>
        <time>2021-07-29T19:55:09Z</time>
      </trkpt>
      <trkpt lat="49.30216" lon="-0.70339">
        <ele>18.4</ele>
        <time>2021-07-29T19:55:18Z</time>
      </trkpt>
      <trkpt lat="49.30221" lon="-0.7034">
        <ele>18.4</ele>
        <time>2021-07-29T19:55:19Z</time>
      </trkpt>
      <trkpt lat="49.30227" lon="-0.70338">
        <ele>19.36</ele>
        <time>2021-07-29T19:55:20Z</time>
      </trkpt>
      <trkpt lat="49.30296" lon="-0.70284">
        <ele>22.25</ele>
        <time>2021-07-29T19:55:29Z</time>
      </trkpt>
      <trkpt lat="49.30296" lon="-0.70284">
        <ele>22.25</ele>
        <time>2021-07-29T19:55:30Z</time>
      </trkpt>
      <trkpt lat="49.30304" lon="-0.70284">
        <ele>22.25</ele>
        <time>2021-07-29T19:55:31Z</time>
      </trkpt>
      <trkpt lat="49.30311" lon="-0.70286">
        <ele>21.77</ele>
        <time>2021-07-29T19:55:32Z</time>
      </trkpt>
      <trkpt lat="49.30318" lon="-0.70287">
        <ele>21.77</ele>
        <time>2021-07-29T19:55:33Z</time>
      </trkpt>
      <trkpt lat="49.30402" lon="-0.70328">
        <ele>21.29</ele>
        <time>2021-07-29T19:55:43Z</time>
      </trkpt>
      <trkpt lat="49.30489" lon="-0.70356">
        <ele>22.25</ele>
        <time>2021-07-29T19:55:52Z</time>
      </trkpt>
      <trkpt lat="49.305" lon="-0.70357">
        <ele>22.73</ele>
        <time>2021-07-29T19:55:53Z</time>
      </trkpt>
      <trkpt lat="49.30512" lon="-0.70359">
        <ele>23.69</ele>
        <time>2021-07-29T19:55:54Z</time>
      </trkpt>
      <trkpt lat="49.30582" lon="-0.70369">
        <ele>28.5</ele>
        <time>2021-07-29T19:55:58Z</time>
      </trkpt>
      <trkpt lat="49.30597" lon="-0.70369">
        <ele>29.46</ele>
        <time>2021-07-29T19:55:59Z</time>
      </trkpt>
      <trkpt lat="49.30698" lon="-0.70314">
        <ele>39.07</ele>
        <time>2021-07-29T19:56:07Z</time>
      </trkpt>
      <trkpt lat="49.30721" lon="-0.7029">
        <ele>41.47</ele>
        <time>2021-07-29T19:56:08Z</time>
      </trkpt>
      <trkpt lat="49.30721" lon="-0.7029">
        <ele>45.32</ele>
        <time>2021-07-29T19:56:09Z</time>
      </trkpt>
      <trkpt lat="49.3073" lon="-0.70277">
        <ele>47.24</ele>
        <time>2021-07-29T19:56:10Z</time>
      </trkpt>
      <trkpt lat="49.30742" lon="-0.7026">
        <ele>48.2</ele>
        <time>2021-07-29T19:56:11Z</time>
      </trkpt>
      <trkpt lat="49.30863" lon="-0.70101">
        <ele>44.84</ele>
        <time>2021-07-29T19:56:20Z</time>
      </trkpt>
      <trkpt lat="49.31052" lon="-0.69968">
        <ele>42.92</ele>
        <time>2021-07-29T19:56:31Z</time>
      </trkpt>
      <trkpt lat="49.31219" lon="-0.69919">
        <ele>38.59</ele>
        <time>2021-07-29T19:56:40Z</time>
      </trkpt>
      <trkpt lat="49.31413" lon="-0.69923">
        <ele>33.78</ele>
        <time>2021-07-29T19:56:50Z</time>
      </trkpt>
      <trkpt lat="49.3161" lon="-0.69979">
        <ele>26.57</ele>
        <time>2021-07-29T19:57:01Z</time>
      </trkpt>
      <trkpt lat="49.31725" lon="-0.7003">
        <ele>24.17</ele>
        <time>2021-07-29T19:57:10Z</time>
      </trkpt>
      <trkpt lat="49.31907" lon="-0.70148">
        <ele>21.29</ele>
        <time>2021-07-29T19:57:24Z</time>
      </trkpt>
      <trkpt lat="49.32104" lon="-0.70274">
        <ele>17.92</ele>
        <time>2021-07-29T19:57:36Z</time>
      </trkpt>
      <trkpt lat="49.32104" lon="-0.70274">
        <ele>15.52</ele>
        <time>2021-07-29T19:57:37Z</time>
      </trkpt>
      <trkpt lat="49.32121" lon="-0.70279">
        <ele>15.52</ele>
        <time>2021-07-29T19:57:38Z</time>
      </trkpt>
      <trkpt lat="49.32154" lon="-0.70286">
        <ele>16.48</ele>
        <time>2021-07-29T19:57:39Z</time>
      </trkpt>
      <trkpt lat="49.32154" lon="-0.70286">
        <ele>19.36</ele>
        <time>2021-07-29T19:57:40Z</time>
      </trkpt>
      <trkpt lat="49.32187" lon="-0.70283">
        <ele>19.84</ele>
        <time>2021-07-29T19:57:41Z</time>
      </trkpt>
      <trkpt lat="49.32475" lon="-0.70247">
        <ele>27.05</ele>
        <time>2021-07-29T19:57:58Z</time>
      </trkpt>
      <trkpt lat="49.32674" lon="-0.70168">
        <ele>24.17</ele>
        <time>2021-07-29T19:58:09Z</time>
      </trkpt>
      <trkpt lat="49.32725" lon="-0.70143">
        <ele>23.69</ele>
        <time>2021-07-29T19:58:12Z</time>
      </trkpt>
      <trkpt lat="49.3274" lon="-0.70131">
        <ele>25.13</ele>
        <time>2021-07-29T19:58:13Z</time>
      </trkpt>
      <trkpt lat="49.32754" lon="-0.70119">
        <ele>27.05</ele>
        <time>2021-07-29T19:58:14Z</time>
      </trkpt>
      <trkpt lat="49.32766" lon="-0.70104">
        <ele>26.57</ele>
        <time>2021-07-29T19:58:15Z</time>
      </trkpt>
      <trkpt lat="49.32778" lon="-0.70087">
        <ele>26.57</ele>
        <time>2021-07-29T19:58:16Z</time>
      </trkpt>
      <trkpt lat="49.32857" lon="-0.69991">
        <ele>26.57</ele>
        <time>2021-07-29T19:58:22Z</time>
      </trkpt>
      <trkpt lat="49.32873" lon="-0.6998">
        <ele>26.09</ele>
        <time>2021-07-29T19:58:23Z</time>
      </trkpt>
      <trkpt lat="49.3289" lon="-0.69971">
        <ele>26.09</ele>
        <time>2021-07-29T19:58:24Z</time>
      </trkpt>
      <trkpt lat="49.32907" lon="-0.69963">
        <ele>27.05</ele>
        <time>2021-07-29T19:58:25Z</time>
      </trkpt>
      <trkpt lat="49.32924" lon="-0.69955">
        <ele>27.53</ele>
        <time>2021-07-29T19:58:26Z</time>
      </trkpt>
      <trkpt lat="49.33033" lon="-0.69942">
        <ele>22.25</ele>
        <time>2021-07-29T19:58:33Z</time>
      </trkpt>
      <trkpt lat="49.33184" lon="-0.69932">
        <ele>20.81</ele>
        <time>2021-07-29T19:58:44Z</time>
      </trkpt>
      <trkpt lat="49.3332" lon="-0.69871">
        <ele>24.17</ele>
        <time>2021-07-29T19:58:54Z</time>
      </trkpt>
      <trkpt lat="49.33419" lon="-0.69856">
        <ele>29.46</ele>
        <time>2021-07-29T19:59:03Z</time>
      </trkpt>
      <trkpt lat="49.33482" lon="-0.69836">
        <ele>34.74</ele>
        <time>2021-07-29T19:59:09Z</time>
      </trkpt>
      <trkpt lat="49.33482" lon="-0.69836">
        <ele>34.74</ele>
        <time>2021-07-29T19:59:10Z</time>
      </trkpt>
      <trkpt lat="49.3349" lon="-0.69828">
        <ele>35.23</ele>
        <time>2021-07-29T19:59:11Z</time>
      </trkpt>
      <trkpt lat="49.33529" lon="-0.69785">
        <ele>37.63</ele>
        <time>2021-07-29T19:59:16Z</time>
      </trkpt>
      <trkpt lat="49.33535" lon="-0.69774">
        <ele>38.11</ele>
        <time>2021-07-29T19:59:17Z</time>
      </trkpt>
      <trkpt lat="49.33558" lon="-0.69725">
        <ele>43.4</ele>
        <time>2021-07-29T19:59:24Z</time>
      </trkpt>
      <trkpt lat="49.33561" lon="-0.69716">
        <ele>45.32</ele>
        <time>2021-07-29T19:59:37Z</time>
      </trkpt>
      <trkpt lat="49.33583" lon="-0.69663">
        <ele>47.24</ele>
        <time>2021-07-29T19:59:44Z</time>
      </trkpt>
      <trkpt lat="49.33583" lon="-0.69663">
        <ele>47.72</ele>
        <time>2021-07-29T19:59:45Z</time>
      </trkpt>
      <trkpt lat="49.33587" lon="-0.69655">
        <ele>47.72</ele>
        <time>2021-07-29T19:59:46Z</time>
      </trkpt>
      <trkpt lat="49.33593" lon="-0.69648">
        <ele>48.2</ele>
        <time>2021-07-29T19:59:47Z</time>
      </trkpt>
      <trkpt lat="49.33599" lon="-0.69641">
        <ele>48.68</ele>
        <time>2021-07-29T19:59:48Z</time>
      </trkpt>
      <trkpt lat="49.33686" lon="-0.6955">
        <ele>53.97</ele>
        <time>2021-07-29T20:00:00Z</time>
      </trkpt>
      <trkpt lat="49.33768" lon="-0.69435">
        <ele>58.78</ele>
        <time>2021-07-29T20:00:11Z</time>
      </trkpt>
      <trkpt lat="49.3383" lon="-0.69356">
        <ele>58.78</ele>
        <time>2021-07-29T20:00:21Z</time>
      </trkpt>
      <trkpt lat="49.33916" lon="-0.69251">
        <ele>58.78</ele>
        <time>2021-07-29T20:00:32Z</time>
      </trkpt>
      <trkpt lat="49.34011" lon="-0.69182">
        <ele>58.78</ele>
        <time>2021-07-29T20:00:45Z</time>
      </trkpt>
      <trkpt lat="49.34102" lon="-0.69139">
        <ele>61.18</ele>
        <time>2021-07-29T20:00:57Z</time>
      </trkpt>
      <trkpt lat="49.34221" lon="-0.691">
        <ele>64.55</ele>
        <time>2021-07-29T20:01:10Z</time>
      </trkpt>
      <trkpt lat="49.34286" lon="-0.69087">
        <ele>65.99</ele>
        <time>2021-07-29T20:01:19Z</time>
      </trkpt>
      <trkpt lat="49.3429" lon="-0.6909">
        <ele>65.51</ele>
        <time>2021-07-29T20:01:20Z</time>
      </trkpt>
      <trkpt lat="49.34295" lon="-0.69093">
        <ele>65.51</ele>
        <time>2021-07-29T20:01:21Z</time>
      </trkpt>
      <trkpt lat="49.34299" lon="-0.69096">
        <ele>65.51</ele>
        <time>2021-07-29T20:01:22Z</time>
      </trkpt>
      <trkpt lat="49.34302" lon="-0.69098">
        <ele>65.51</ele>
        <time>2021-07-29T20:01:23Z</time>
      </trkpt>
      <trkpt lat="49.34326" lon="-0.6912">
        <ele>65.03</ele>
        <time>2021-07-29T20:01:34Z</time>
      </trkpt>
      <trkpt lat="49.34368" lon="-0.69161">
        <ele>64.55</ele>
        <time>2021-07-29T20:01:44Z</time>
      </trkpt>
      <trkpt lat="49.34373" lon="-0.69166">
        <ele>64.55</ele>
        <time>2021-07-29T20:01:45Z</time>
      </trkpt>
      <trkpt lat="49.34379" lon="-0.69171">
        <ele>64.55</ele>
        <time>2021-07-29T20:01:46Z</time>
      </trkpt>
      <trkpt lat="49.34385" lon="-0.69168">
        <ele>64.55</ele>
        <time>2021-07-29T20:01:47Z</time>
      </trkpt>
      <trkpt lat="49.34393" lon="-0.69165">
        <ele>64.55</ele>
        <time>2021-07-29T20:01:48Z</time>
      </trkpt>
      <trkpt lat="49.34522" lon="-0.69097">
        <ele>63.58</ele>
        <time>2021-07-29T20:02:05Z</time>
      </trkpt>
      <trkpt lat="49.34591" lon="-0.69057">
        <ele>62.14</ele>
        <time>2021-07-29T20:02:17Z</time>
      </trkpt>
      <trkpt lat="49.34597" lon="-0.69012">
        <ele>61.18</ele>
        <time>2021-07-29T20:02:27Z</time>
      </trkpt>
      <trkpt lat="49.34597" lon="-0.6898">
        <ele>61.66</ele>
        <time>2021-07-29T20:02:38Z</time>
      </trkpt>
      <trkpt lat="49.34597" lon="-0.6898">
        <ele>61.66</ele>
        <time>2021-07-29T20:03:35Z</time>
      </trkpt>
      <trkpt lat="49.34597" lon="-0.6898">
        <ele>61.18</ele>
        <time>2021-07-29T20:03:51Z</time>
      </trkpt>
      <trkpt lat="49.34597" lon="-0.6898">
        <ele>61.66</ele>
        <time>2021-07-29T20:04:06Z</time>
      </trkpt>
      <trkpt lat="49.34597" lon="-0.6898">
        <ele>61.66</ele>
        <time>2021-07-29T20:04:41Z</time>
      </trkpt>
      <trkpt lat="49.34597" lon="-0.6898">
        <ele>61.66</ele>
        <time>2021-07-29T20:04:55Z</time>
      </trkpt>
      <trkpt lat="49.34596" lon="-0.68987">
        <ele>62.14</ele>
        <time>2021-07-29T20:04:56Z</time>
      </trkpt>
      <trkpt lat="49.34596" lon="-0.68987">
        <ele>62.14</ele>
        <time>2021-07-29T20:04:57Z</time>
      </trkpt>
      <trkpt lat="49.34595" lon="-0.68997">
        <ele>62.14</ele>
        <time>2021-07-29T20:04:58Z</time>
      </trkpt>
      <trkpt lat="49.34595" lon="-0.68997">
        <ele>62.14</ele>
        <time>2021-07-29T20:04:59Z</time>
      </trkpt>
      <trkpt lat="49.34596" lon="-0.69001">
        <ele>62.62</ele>
        <time>2021-07-29T20:05:00Z</time>
      </trkpt>
      <trkpt lat="49.34597" lon="-0.69012">
        <ele>62.62</ele>
        <time>2021-07-29T20:05:13Z</time>
      </trkpt>
      <trkpt lat="49.34597" lon="-0.69012">
        <ele>62.14</ele>
        <time>2021-07-29T20:09:57Z</time>
      </trkpt>
      <trkpt lat="49.34591" lon="-0.69057">
        <ele>63.58</ele>
        <time>2021-07-29T20:10:09Z</time>
      </trkpt>
      <trkpt lat="49.34548" lon="-0.69083">
        <ele>65.03</ele>
        <time>2021-07-29T20:10:21Z</time>
      </trkpt>
      <trkpt lat="49.34471" lon="-0.69126">
        <ele>66.47</ele>
        <time>2021-07-29T20:10:36Z</time>
      </trkpt>
      <trkpt lat="49.34382" lon="-0.69169">
        <ele>66.47</ele>
        <time>2021-07-29T20:10:54Z</time>
      </trkpt>
      <trkpt lat="49.34349" lon="-0.69142">
        <ele>66.47</ele>
        <time>2021-07-29T20:11:04Z</time>
      </trkpt>
      <trkpt lat="49.34317" lon="-0.69112">
        <ele>66.47</ele>
        <time>2021-07-29T20:11:14Z</time>
      </trkpt>
      <trkpt lat="49.34315" lon="-0.6911">
        <ele>66.47</ele>
        <time>2021-07-29T20:11:15Z</time>
      </trkpt>
      <trkpt lat="49.34306" lon="-0.69114">
        <ele>66.47</ele>
        <time>2021-07-29T20:11:16Z</time>
      </trkpt>
      <trkpt lat="49.34306" lon="-0.69114">
        <ele>66.47</ele>
        <time>2021-07-29T20:11:17Z</time>
      </trkpt>
      <trkpt lat="49.34306" lon="-0.69117">
        <ele>66.47</ele>
        <time>2021-07-29T20:11:18Z</time>
      </trkpt>
      <trkpt lat="49.34306" lon="-0.69119">
        <ele>66.47</ele>
        <time>2021-07-29T20:11:19Z</time>
      </trkpt>
      <trkpt lat="49.34307" lon="-0.69176">
        <ele>66.47</ele>
        <time>2021-07-29T20:11:32Z</time>
      </trkpt>
      <trkpt lat="49.34307" lon="-0.6922">
        <ele>66.95</ele>
        <time>2021-07-29T20:11:44Z</time>
      </trkpt>
    </trkseg>
  </trk>
</gpx>